sensor_id;sensor_type;location;lat;lon;timestamp;P1;durP1;ratioP1;P2;durP2;ratioP2
8247;SDS011;4164;49.844;8.830;2022-08-03T00:01:23;2.03;;;1.87;;
8247;SDS011;4164;49.844;8.830;2022-08-03T00:03:48;3.43;;;2.13;;
8247;SDS011;4164;49.844;8.830;2022-08-03T00:06:14;4.70;;;2.03;;
8247;SDS011;4164;49.844;8.830;2022-08-03T00:08:40;2.50;;;2.30;;
8247;SDS011;4164;49.844;8.830;2022-08-03T00:11:08;3.77;;;2.10;;
8247;SDS011;4164;49.844;8.830;2022-08-03T00:13:34;2.57;;;2.00;;
8247;SDS011;4164;49.844;8.830;2022-08-03T00:15:59;2.50;;;2.30;;
8247;SDS011;4164;49.844;8.830;2022-08-03T00:18:25;2.97;;;2.27;;
8247;SDS011;4164;49.844;8.830;2022-08-03T00:20:50;8.23;;;2.07;;
8247;SDS011;4164;49.844;8.830;2022-08-03T00:23:16;3.73;;;2.00;;
8247;SDS011;4164;49.844;8.830;2022-08-03T00:25:42;2.17;;;2.07;;
8247;SDS011;4164;49.844;8.830;2022-08-03T00:28:07;2.40;;;2.20;;
8247;SDS011;4164;49.844;8.830;2022-08-03T00:30:33;3.83;;;2.13;;
8247;SDS011;4164;49.844;8.830;2022-08-03T00:32:59;5.03;;;2.60;;
8247;SDS011;4164;49.844;8.830;2022-08-03T00:35:25;2.50;;;2.30;;
8247;SDS011;4164;49.844;8.830;2022-08-03T00:37:51;2.40;;;2.17;;
8247;SDS011;4164;49.844;8.830;2022-08-03T00:40:17;2.17;;;2.03;;
8247;SDS011;4164;49.844;8.830;2022-08-03T00:42:51;2.57;;;2.13;;
8247;SDS011;4164;49.844;8.830;2022-08-03T00:45:17;3.43;;;2.40;;
8247;SDS011;4164;49.844;8.830;2022-08-03T00:47:45;3.20;;;2.00;;
8247;SDS011;4164;49.844;8.830;2022-08-03T00:50:11;2.23;;;2.03;;
8247;SDS011;4164;49.844;8.830;2022-08-03T00:52:37;2.33;;;2.13;;
8247;SDS011;4164;49.844;8.830;2022-08-03T00:55:03;3.13;;;2.20;;
8247;SDS011;4164;49.844;8.830;2022-08-03T00:57:30;2.50;;;2.30;;
8247;SDS011;4164;49.844;8.830;2022-08-03T00:59:56;4.50;;;2.13;;
8247;SDS011;4164;49.844;8.830;2022-08-03T01:02:24;3.47;;;2.20;;
8247;SDS011;4164;49.844;8.830;2022-08-03T01:04:50;5.30;;;2.53;;
8247;SDS011;4164;49.844;8.830;2022-08-03T01:07:26;2.73;;;2.43;;
8247;SDS011;4164;49.844;8.830;2022-08-03T01:18:17;2.27;;;2.07;;
8247;SDS011;4164;49.844;8.830;2022-08-03T01:20:50;3.30;;;2.10;;
8247;SDS011;4164;49.844;8.830;2022-08-03T01:23:27;2.27;;;2.07;;
8247;SDS011;4164;49.844;8.830;2022-08-03T01:26:23;2.53;;;2.10;;
8247;SDS011;4164;49.844;8.830;2022-08-03T01:32:10;4.60;;;2.30;;
8247;SDS011;4164;49.844;8.830;2022-08-03T01:34:40;2.50;;;2.30;;
8247;SDS011;4164;49.844;8.830;2022-08-03T01:37:10;2.87;;;2.07;;
8247;SDS011;4164;49.844;8.830;2022-08-03T01:39:38;2.40;;;2.20;;
8247;SDS011;4164;49.844;8.830;2022-08-03T01:42:06;3.57;;;2.40;;
8247;SDS011;4164;49.844;8.830;2022-08-03T01:44:36;4.73;;;2.30;;
8247;SDS011;4164;49.844;8.830;2022-08-03T01:47:04;2.57;;;2.10;;
8247;SDS011;4164;49.844;8.830;2022-08-03T01:49:34;3.40;;;1.90;;
8247;SDS011;4164;49.844;8.830;2022-08-03T01:52:03;2.97;;;2.40;;
8247;SDS011;4164;49.844;8.830;2022-08-03T01:54:30;2.87;;;2.17;;
8247;SDS011;4164;49.844;8.830;2022-08-03T01:56:59;2.73;;;2.50;;
8247;SDS011;4164;49.844;8.830;2022-08-03T01:59:26;4.40;;;2.20;;
8247;SDS011;4164;49.844;8.830;2022-08-03T02:01:54;3.53;;;2.50;;
8247;SDS011;4164;49.844;8.830;2022-08-03T02:04:21;3.30;;;2.10;;
8247;SDS011;4164;49.844;8.830;2022-08-03T02:06:49;2.97;;;2.40;;
8247;SDS011;4164;49.844;8.830;2022-08-03T02:09:16;2.63;;;2.10;;
8247;SDS011;4164;49.844;8.830;2022-08-03T02:11:44;2.37;;;2.20;;
8247;SDS011;4164;49.844;8.830;2022-08-03T02:14:11;2.80;;;2.10;;
8247;SDS011;4164;49.844;8.830;2022-08-03T02:16:40;2.47;;;2.27;;
8247;SDS011;4164;49.844;8.830;2022-08-03T02:19:08;2.70;;;2.50;;
8247;SDS011;4164;49.844;8.830;2022-08-03T02:21:35;6.47;;;2.50;;
8247;SDS011;4164;49.844;8.830;2022-08-03T02:24:02;2.80;;;2.43;;
8247;SDS011;4164;49.844;8.830;2022-08-03T02:26:29;2.50;;;2.30;;
8247;SDS011;4164;49.844;8.830;2022-08-03T02:28:58;2.67;;;2.47;;
8247;SDS011;4164;49.844;8.830;2022-08-03T02:31:30;2.20;;;2.10;;
8247;SDS011;4164;49.844;8.830;2022-08-03T02:34:01;2.73;;;2.43;;
8247;SDS011;4164;49.844;8.830;2022-08-03T02:36:30;3.17;;;2.70;;
8247;SDS011;4164;49.844;8.830;2022-08-03T02:39:01;2.50;;;2.20;;
8247;SDS011;4164;49.844;8.830;2022-08-03T02:41:51;4.73;;;2.90;;
8247;SDS011;4164;49.844;8.830;2022-08-03T02:44:16;4.50;;;2.70;;
8247;SDS011;4164;49.844;8.830;2022-08-03T02:46:45;2.63;;;2.43;;
8247;SDS011;4164;49.844;8.830;2022-08-03T02:49:16;2.47;;;2.23;;
8247;SDS011;4164;49.844;8.830;2022-08-03T02:51:43;2.90;;;2.40;;
8247;SDS011;4164;49.844;8.830;2022-08-03T02:54:10;3.07;;;2.57;;
8247;SDS011;4164;49.844;8.830;2022-08-03T02:56:39;2.90;;;2.43;;
8247;SDS011;4164;49.844;8.830;2022-08-03T02:59:06;2.57;;;2.37;;
8247;SDS011;4164;49.844;8.830;2022-08-03T03:01:33;3.30;;;2.50;;
8247;SDS011;4164;49.844;8.830;2022-08-03T03:03:59;2.53;;;2.33;;
8247;SDS011;4164;49.844;8.830;2022-08-03T03:06:25;2.50;;;2.30;;
8247;SDS011;4164;49.844;8.830;2022-08-03T03:08:52;2.67;;;2.47;;
8247;SDS011;4164;49.844;8.830;2022-08-03T03:11:19;3.07;;;2.30;;
8247;SDS011;4164;49.844;8.830;2022-08-03T03:13:46;2.73;;;2.37;;
8247;SDS011;4164;49.844;8.830;2022-08-03T03:16:13;2.73;;;2.53;;
8247;SDS011;4164;49.844;8.830;2022-08-03T03:18:39;6.10;;;2.40;;
8247;SDS011;4164;49.844;8.830;2022-08-03T03:21:08;2.77;;;2.57;;
8247;SDS011;4164;49.844;8.830;2022-08-03T03:23:35;4.17;;;2.57;;
8247;SDS011;4164;49.844;8.830;2022-08-03T03:26:02;5.73;;;2.37;;
8247;SDS011;4164;49.844;8.830;2022-08-03T03:28:28;3.07;;;2.77;;
8247;SDS011;4164;49.844;8.830;2022-08-03T03:30:55;2.70;;;2.50;;
8247;SDS011;4164;49.844;8.830;2022-08-03T03:33:21;3.40;;;3.07;;
8247;SDS011;4164;49.844;8.830;2022-08-03T03:35:47;3.97;;;2.90;;
8247;SDS011;4164;49.844;8.830;2022-08-03T03:38:12;3.73;;;3.30;;
8247;SDS011;4164;49.844;8.830;2022-08-03T03:40:38;2.83;;;2.57;;
8247;SDS011;4164;49.844;8.830;2022-08-03T03:43:07;3.00;;;2.80;;
8247;SDS011;4164;49.844;8.830;2022-08-03T03:45:35;3.30;;;3.00;;
8247;SDS011;4164;49.844;8.830;2022-08-03T03:48:02;3.07;;;2.83;;
8247;SDS011;4164;49.844;8.830;2022-08-03T03:50:29;3.47;;;2.77;;
8247;SDS011;4164;49.844;8.830;2022-08-03T03:52:56;2.90;;;2.70;;
8247;SDS011;4164;49.844;8.830;2022-08-03T03:55:23;5.50;;;2.83;;
8247;SDS011;4164;49.844;8.830;2022-08-03T03:57:48;3.77;;;3.37;;
8247;SDS011;4164;49.844;8.830;2022-08-03T04:00:15;4.97;;;3.17;;
8247;SDS011;4164;49.844;8.830;2022-08-03T04:02:42;2.87;;;2.67;;
8247;SDS011;4164;49.844;8.830;2022-08-03T04:05:08;2.60;;;2.40;;
8247;SDS011;4164;49.844;8.830;2022-08-03T04:11:13;2.80;;;2.60;;
8247;SDS011;4164;49.844;8.830;2022-08-03T04:14:05;2.93;;;2.63;;
8247;SDS011;4164;49.844;8.830;2022-08-03T04:16:35;10.43;;;3.37;;
8247;SDS011;4164;49.844;8.830;2022-08-03T04:19:05;4.80;;;3.27;;
8247;SDS011;4164;49.844;8.830;2022-08-03T04:21:34;2.90;;;2.60;;
8247;SDS011;4164;49.844;8.830;2022-08-03T04:24:04;3.30;;;3.00;;
8247;SDS011;4164;49.844;8.830;2022-08-03T04:26:34;3.73;;;3.10;;
8247;SDS011;4164;49.844;8.830;2022-08-03T04:29:03;3.27;;;2.97;;
8247;SDS011;4164;49.844;8.830;2022-08-03T04:31:30;3.80;;;2.90;;
8247;SDS011;4164;49.844;8.830;2022-08-03T04:33:57;3.23;;;2.93;;
8247;SDS011;4164;49.844;8.830;2022-08-03T04:36:25;5.00;;;2.70;;
8247;SDS011;4164;49.844;8.830;2022-08-03T04:38:59;4.07;;;3.10;;
8247;SDS011;4164;49.844;8.830;2022-08-03T04:41:27;3.50;;;2.87;;
8247;SDS011;4164;49.844;8.830;2022-08-03T04:43:55;6.00;;;2.57;;
8247;SDS011;4164;49.844;8.830;2022-08-03T04:46:22;4.17;;;2.93;;
8247;SDS011;4164;49.844;8.830;2022-08-03T04:48:51;3.67;;;3.37;;
8247;SDS011;4164;49.844;8.830;2022-08-03T04:51:18;3.30;;;3.00;;
8247;SDS011;4164;49.844;8.830;2022-08-03T04:53:43;3.10;;;2.90;;
8247;SDS011;4164;49.844;8.830;2022-08-03T04:56:09;4.80;;;3.20;;
8247;SDS011;4164;49.844;8.830;2022-08-03T04:58:34;6.73;;;2.90;;
8247;SDS011;4164;49.844;8.830;2022-08-03T05:01:00;3.00;;;2.70;;
8247;SDS011;4164;49.844;8.830;2022-08-03T05:03:25;4.97;;;3.30;;
8247;SDS011;4164;49.844;8.830;2022-08-03T05:05:51;3.20;;;2.90;;
8247;SDS011;4164;49.844;8.830;2022-08-03T05:08:17;9.20;;;3.20;;
8247;SDS011;4164;49.844;8.830;2022-08-03T05:10:43;3.73;;;3.43;;
8247;SDS011;4164;49.844;8.830;2022-08-03T05:13:08;5.90;;;3.60;;
8247;SDS011;4164;49.844;8.830;2022-08-03T05:15:36;3.27;;;2.90;;
8247;SDS011;4164;49.844;8.830;2022-08-03T05:18:02;3.90;;;2.80;;
8247;SDS011;4164;49.844;8.830;2022-08-03T05:20:28;4.83;;;3.07;;
8247;SDS011;4164;49.844;8.830;2022-08-03T05:22:55;3.40;;;3.07;;
8247;SDS011;4164;49.844;8.830;2022-08-03T05:25:21;3.83;;;2.80;;
8247;SDS011;4164;49.844;8.830;2022-08-03T05:27:47;4.87;;;3.03;;
8247;SDS011;4164;49.844;8.830;2022-08-03T05:30:12;5.80;;;2.90;;
8247;SDS011;4164;49.844;8.830;2022-08-03T05:32:38;7.73;;;3.43;;
8247;SDS011;4164;49.844;8.830;2022-08-03T05:35:03;5.10;;;2.90;;
8247;SDS011;4164;49.844;8.830;2022-08-03T05:37:29;3.77;;;2.90;;
8247;SDS011;4164;49.844;8.830;2022-08-03T05:39:55;9.13;;;3.10;;
8247;SDS011;4164;49.844;8.830;2022-08-03T05:42:21;4.23;;;2.50;;
8247;SDS011;4164;49.844;8.830;2022-08-03T05:44:46;3.73;;;2.53;;
8247;SDS011;4164;49.844;8.830;2022-08-03T05:47:12;4.70;;;3.00;;
8247;SDS011;4164;49.844;8.830;2022-08-03T05:49:37;3.67;;;2.57;;
8247;SDS011;4164;49.844;8.830;2022-08-03T05:52:03;7.10;;;2.90;;
8247;SDS011;4164;49.844;8.830;2022-08-03T05:54:28;4.43;;;3.23;;
8247;SDS011;4164;49.844;8.830;2022-08-03T05:56:54;8.30;;;2.70;;
8247;SDS011;4164;49.844;8.830;2022-08-03T05:59:19;3.93;;;2.87;;
8247;SDS011;4164;49.844;8.830;2022-08-03T06:01:45;6.80;;;3.03;;
8247;SDS011;4164;49.844;8.830;2022-08-03T06:04:11;3.07;;;2.77;;
8247;SDS011;4164;49.844;8.830;2022-08-03T06:06:37;4.27;;;2.60;;
8247;SDS011;4164;49.844;8.830;2022-08-03T06:09:03;4.20;;;2.70;;
8247;SDS011;4164;49.844;8.830;2022-08-03T06:11:28;6.37;;;2.70;;
8247;SDS011;4164;49.844;8.830;2022-08-03T06:13:54;3.47;;;2.60;;
8247;SDS011;4164;49.844;8.830;2022-08-03T06:16:19;3.93;;;2.50;;
8247;SDS011;4164;49.844;8.830;2022-08-03T06:18:44;3.90;;;2.30;;
8247;SDS011;4164;49.844;8.830;2022-08-03T06:21:10;3.47;;;2.83;;
8247;SDS011;4164;49.844;8.830;2022-08-03T06:23:36;2.83;;;2.40;;
8247;SDS011;4164;49.844;8.830;2022-08-03T06:26:01;2.70;;;2.50;;
8247;SDS011;4164;49.844;8.830;2022-08-03T06:28:27;4.57;;;2.30;;
8247;SDS011;4164;49.844;8.830;2022-08-03T06:30:52;2.67;;;2.47;;
8247;SDS011;4164;49.844;8.830;2022-08-03T06:33:18;2.80;;;2.60;;
8247;SDS011;4164;49.844;8.830;2022-08-03T06:35:44;5.40;;;2.73;;
8247;SDS011;4164;49.844;8.830;2022-08-03T06:38:09;2.20;;;2.00;;
8247;SDS011;4164;49.844;8.830;2022-08-03T06:40:35;3.67;;;2.57;;
8247;SDS011;4164;49.844;8.830;2022-08-03T06:43:04;2.60;;;2.40;;
8247;SDS011;4164;49.844;8.830;2022-08-03T06:45:30;2.50;;;2.30;;
8247;SDS011;4164;49.844;8.830;2022-08-03T06:48:07;4.27;;;2.17;;
8247;SDS011;4164;49.844;8.830;2022-08-03T06:50:34;4.07;;;2.00;;
8247;SDS011;4164;49.844;8.830;2022-08-03T06:53:01;2.37;;;2.10;;
8247;SDS011;4164;49.844;8.830;2022-08-03T06:55:28;3.73;;;2.30;;
8247;SDS011;4164;49.844;8.830;2022-08-03T06:57:54;4.30;;;2.37;;
8247;SDS011;4164;49.844;8.830;2022-08-03T07:00:20;4.10;;;2.23;;
8247;SDS011;4164;49.844;8.830;2022-08-03T07:02:46;2.10;;;1.90;;
8247;SDS011;4164;49.844;8.830;2022-08-03T07:05:12;2.47;;;2.00;;
8247;SDS011;4164;49.844;8.830;2022-08-03T07:07:38;4.67;;;2.23;;
8247;SDS011;4164;49.844;8.830;2022-08-03T07:10:04;3.13;;;2.03;;
8247;SDS011;4164;49.844;8.830;2022-08-03T07:12:31;2.03;;;1.70;;
8247;SDS011;4164;49.844;8.830;2022-08-03T07:14:58;2.03;;;1.83;;
8247;SDS011;4164;49.844;8.830;2022-08-03T07:17:24;2.17;;;1.97;;
8247;SDS011;4164;49.844;8.830;2022-08-03T07:19:50;2.27;;;2.07;;
8247;SDS011;4164;49.844;8.830;2022-08-03T07:22:15;2.50;;;2.30;;
8247;SDS011;4164;49.844;8.830;2022-08-03T07:24:41;2.23;;;2.10;;
8247;SDS011;4164;49.844;8.830;2022-08-03T07:27:07;2.40;;;2.20;;
8247;SDS011;4164;49.844;8.830;2022-08-03T07:29:33;3.43;;;2.60;;
8247;SDS011;4164;49.844;8.830;2022-08-03T07:32:00;3.40;;;2.20;;
8247;SDS011;4164;49.844;8.830;2022-08-03T07:34:27;2.50;;;2.30;;
8247;SDS011;4164;49.844;8.830;2022-08-03T07:36:52;5.73;;;2.07;;
8247;SDS011;4164;49.844;8.830;2022-08-03T07:39:18;9.23;;;2.30;;
8247;SDS011;4164;49.844;8.830;2022-08-03T07:41:44;5.03;;;2.27;;
8247;SDS011;4164;49.844;8.830;2022-08-03T07:44:10;2.50;;;2.30;;
8247;SDS011;4164;49.844;8.830;2022-08-03T07:46:35;2.93;;;2.60;;
8247;SDS011;4164;49.844;8.830;2022-08-03T07:49:01;2.57;;;2.03;;
8247;SDS011;4164;49.844;8.830;2022-08-03T07:51:27;2.27;;;2.00;;
8247;SDS011;4164;49.844;8.830;2022-08-03T07:53:52;4.13;;;2.07;;
8247;SDS011;4164;49.844;8.830;2022-08-03T07:56:19;3.03;;;2.10;;
8247;SDS011;4164;49.844;8.830;2022-08-03T07:58:45;2.40;;;2.20;;
8247;SDS011;4164;49.844;8.830;2022-08-03T08:01:10;2.57;;;2.20;;
8247;SDS011;4164;49.844;8.830;2022-08-03T08:03:36;7.37;;;2.33;;
8247;SDS011;4164;49.844;8.830;2022-08-03T08:06:01;9.13;;;2.33;;
8247;SDS011;4164;49.844;8.830;2022-08-03T08:08:27;2.93;;;2.30;;
8247;SDS011;4164;49.844;8.830;2022-08-03T08:10:53;2.70;;;2.10;;
8247;SDS011;4164;49.844;8.830;2022-08-03T08:13:18;3.03;;;2.23;;
8247;SDS011;4164;49.844;8.830;2022-08-03T08:15:44;2.57;;;2.20;;
8247;SDS011;4164;49.844;8.830;2022-08-03T08:18:09;2.60;;;2.23;;
8247;SDS011;4164;49.844;8.830;2022-08-03T08:20:35;4.33;;;2.30;;
8247;SDS011;4164;49.844;8.830;2022-08-03T08:23:03;2.97;;;2.20;;
8247;SDS011;4164;49.844;8.830;2022-08-03T08:25:30;2.33;;;2.13;;
8247;SDS011;4164;49.844;8.830;2022-08-03T08:27:57;2.40;;;2.20;;
8247;SDS011;4164;49.844;8.830;2022-08-03T08:30:26;1.90;;;1.80;;
8247;SDS011;4164;49.844;8.830;2022-08-03T08:32:51;2.27;;;2.00;;
8247;SDS011;4164;49.844;8.830;2022-08-03T08:35:17;2.00;;;1.90;;
8247;SDS011;4164;49.844;8.830;2022-08-03T08:37:43;2.27;;;2.07;;
8247;SDS011;4164;49.844;8.830;2022-08-03T08:40:09;3.03;;;2.07;;
8247;SDS011;4164;49.844;8.830;2022-08-03T08:42:37;1.90;;;1.80;;
8247;SDS011;4164;49.844;8.830;2022-08-03T08:45:03;3.03;;;2.00;;
8247;SDS011;4164;49.844;8.830;2022-08-03T08:47:31;1.80;;;1.70;;
8247;SDS011;4164;49.844;8.830;2022-08-03T08:49:58;2.00;;;1.80;;
8247;SDS011;4164;49.844;8.830;2022-08-03T08:52:24;2.00;;;1.90;;
8247;SDS011;4164;49.844;8.830;2022-08-03T08:54:56;2.73;;;2.10;;
8247;SDS011;4164;49.844;8.830;2022-08-03T08:57:33;2.10;;;1.90;;
8247;SDS011;4164;49.844;8.830;2022-08-03T09:00:04;2.87;;;2.13;;
8247;SDS011;4164;49.844;8.830;2022-08-03T09:02:33;1.93;;;1.80;;
8247;SDS011;4164;49.844;8.830;2022-08-03T09:04:59;2.20;;;1.93;;
8247;SDS011;4164;49.844;8.830;2022-08-03T09:07:26;2.47;;;2.27;;
8247;SDS011;4164;49.844;8.830;2022-08-03T09:09:52;1.80;;;1.70;;
8247;SDS011;4164;49.844;8.830;2022-08-03T09:12:18;2.10;;;2.00;;
8247;SDS011;4164;49.844;8.830;2022-08-03T09:14:43;3.10;;;2.10;;
8247;SDS011;4164;49.844;8.830;2022-08-03T09:17:09;2.30;;;2.10;;
8247;SDS011;4164;49.844;8.830;2022-08-03T09:19:35;4.03;;;2.10;;
8247;SDS011;4164;49.844;8.830;2022-08-03T09:22:07;2.10;;;1.70;;
8247;SDS011;4164;49.844;8.830;2022-08-03T09:24:33;2.00;;;1.90;;
8247;SDS011;4164;49.844;8.830;2022-08-03T09:27:00;2.97;;;2.00;;
8247;SDS011;4164;49.844;8.830;2022-08-03T09:29:26;2.70;;;2.17;;
8247;SDS011;4164;49.844;8.830;2022-08-03T09:32:00;3.40;;;2.27;;
8247;SDS011;4164;49.844;8.830;2022-08-03T09:34:27;2.43;;;1.87;;
8247;SDS011;4164;49.844;8.830;2022-08-03T09:36:53;4.27;;;2.00;;
8247;SDS011;4164;49.844;8.830;2022-08-03T09:39:21;4.17;;;2.00;;
8247;SDS011;4164;49.844;8.830;2022-08-03T09:42:08;2.73;;;2.20;;
8247;SDS011;4164;49.844;8.830;2022-08-03T09:44:36;2.30;;;2.20;;
8247;SDS011;4164;49.844;8.830;2022-08-03T09:47:04;3.40;;;2.13;;
8247;SDS011;4164;49.844;8.830;2022-08-03T09:49:30;2.07;;;1.90;;
8247;SDS011;4164;49.844;8.830;2022-08-03T09:51:56;2.30;;;2.00;;
8247;SDS011;4164;49.844;8.830;2022-08-03T09:54:27;2.40;;;2.20;;
8247;SDS011;4164;49.844;8.830;2022-08-03T09:56:57;2.67;;;2.00;;
8247;SDS011;4164;49.844;8.830;2022-08-03T09:59:24;2.17;;;2.07;;
8247;SDS011;4164;49.844;8.830;2022-08-03T10:01:51;2.90;;;2.43;;
8247;SDS011;4164;49.844;8.830;2022-08-03T10:04:21;2.77;;;2.20;;
8247;SDS011;4164;49.844;8.830;2022-08-03T10:07:07;2.73;;;2.20;;
8247;SDS011;4164;49.844;8.830;2022-08-03T10:09:34;2.30;;;2.10;;
8247;SDS011;4164;49.844;8.830;2022-08-03T10:12:07;3.70;;;2.10;;
8247;SDS011;4164;49.844;8.830;2022-08-03T10:14:37;2.70;;;2.13;;
8247;SDS011;4164;49.844;8.830;2022-08-03T10:17:04;2.30;;;2.10;;
8247;SDS011;4164;49.844;8.830;2022-08-03T10:19:30;2.17;;;1.97;;
8247;SDS011;4164;49.844;8.830;2022-08-03T10:21:58;2.10;;;1.90;;
8247;SDS011;4164;49.844;8.830;2022-08-03T10:24:28;3.90;;;2.13;;
8247;SDS011;4164;49.844;8.830;2022-08-03T10:27:01;3.23;;;2.37;;
8247;SDS011;4164;49.844;8.830;2022-08-03T10:29:28;4.63;;;1.97;;
8247;SDS011;4164;49.844;8.830;2022-08-03T10:32:06;2.73;;;2.40;;
8247;SDS011;4164;49.844;8.830;2022-08-03T10:34:53;3.00;;;2.00;;
8247;SDS011;4164;49.844;8.830;2022-08-03T10:37:28;4.63;;;2.07;;
8247;SDS011;4164;49.844;8.830;2022-08-03T10:39:56;3.20;;;2.20;;
8247;SDS011;4164;49.844;8.830;2022-08-03T10:42:23;3.83;;;2.30;;
8247;SDS011;4164;49.844;8.830;2022-08-03T10:44:55;4.33;;;2.23;;
8247;SDS011;4164;49.844;8.830;2022-08-03T10:47:28;2.20;;;2.10;;
8247;SDS011;4164;49.844;8.830;2022-08-03T10:49:54;5.40;;;2.07;;
8247;SDS011;4164;49.844;8.830;2022-08-03T10:52:20;2.37;;;2.10;;
8247;SDS011;4164;49.844;8.830;2022-08-03T10:54:46;2.30;;;2.10;;
8247;SDS011;4164;49.844;8.830;2022-08-03T10:57:43;2.17;;;1.97;;
8247;SDS011;4164;49.844;8.830;2022-08-03T11:00:09;4.90;;;2.20;;
8247;SDS011;4164;49.844;8.830;2022-08-03T11:05:29;2.60;;;2.40;;
8247;SDS011;4164;49.844;8.830;2022-08-03T11:10:45;2.90;;;2.10;;
8247;SDS011;4164;49.844;8.830;2022-08-03T11:13:15;2.83;;;2.13;;
8247;SDS011;4164;49.844;8.830;2022-08-03T11:15:46;2.20;;;2.03;;
8247;SDS011;4164;49.844;8.830;2022-08-03T11:18:13;4.07;;;2.50;;
8247;SDS011;4164;49.844;8.830;2022-08-03T11:20:43;2.27;;;2.07;;
8247;SDS011;4164;49.844;8.830;2022-08-03T11:23:13;2.63;;;2.10;;
8247;SDS011;4164;49.844;8.830;2022-08-03T11:28:37;2.50;;;2.30;;
8247;SDS011;4164;49.844;8.830;2022-08-03T11:34:06;3.10;;;2.47;;
8247;SDS011;4164;49.844;8.830;2022-08-03T11:39:39;2.60;;;2.40;;
8247;SDS011;4164;49.844;8.830;2022-08-03T11:47:19;2.00;;;1.90;;
8247;SDS011;4164;49.844;8.830;2022-08-03T11:49:45;3.00;;;2.10;;
8247;SDS011;4164;49.844;8.830;2022-08-03T11:52:12;3.30;;;2.10;;
8247;SDS011;4164;49.844;8.830;2022-08-03T11:54:38;2.83;;;2.00;;
8247;SDS011;4164;49.844;8.830;2022-08-03T11:57:05;3.93;;;2.13;;
8247;SDS011;4164;49.844;8.830;2022-08-03T11:59:34;4.40;;;1.90;;
8247;SDS011;4164;49.844;8.830;2022-08-03T12:02:07;1.88;;;1.70;;
8247;SDS011;4164;49.844;8.830;2022-08-03T12:07:27;3.30;;;1.90;;
8247;SDS011;4164;49.844;8.830;2022-08-03T12:10:10;3.80;;;2.33;;
8247;SDS011;4164;49.844;8.830;2022-08-03T12:12:37;2.53;;;1.80;;
8247;SDS011;4164;49.844;8.830;2022-08-03T12:15:04;8.18;;;2.10;;
8247;SDS011;4164;49.844;8.830;2022-08-03T12:17:34;2.60;;;2.17;;
8247;SDS011;4164;49.844;8.830;2022-08-03T12:20:02;2.10;;;1.90;;
8247;SDS011;4164;49.844;8.830;2022-08-03T12:22:36;2.25;;;1.88;;
8247;SDS011;4164;49.844;8.830;2022-08-03T12:25:04;3.78;;;2.10;;
8247;SDS011;4164;49.844;8.830;2022-08-03T12:27:30;1.83;;;1.70;;
8247;SDS011;4164;49.844;8.830;2022-08-03T12:29:56;2.40;;;1.92;;
8247;SDS011;4164;49.844;8.830;2022-08-03T12:32:22;2.17;;;2.08;;
8247;SDS011;4164;49.844;8.830;2022-08-03T12:34:49;2.63;;;1.85;;
8247;SDS011;4164;49.844;8.830;2022-08-03T12:37:19;2.35;;;2.15;;
8247;SDS011;4164;49.844;8.830;2022-08-03T12:39:50;2.20;;;2.00;;
8247;SDS011;4164;49.844;8.830;2022-08-03T12:42:16;3.22;;;2.20;;
8247;SDS011;4164;49.844;8.830;2022-08-03T12:44:41;3.72;;;1.85;;
8247;SDS011;4164;49.844;8.830;2022-08-03T12:47:07;5.05;;;2.17;;
8247;SDS011;4164;49.844;8.830;2022-08-03T12:52:29;2.20;;;2.00;;
8247;SDS011;4164;49.844;8.830;2022-08-03T12:55:08;3.05;;;2.10;;
8247;SDS011;4164;49.844;8.830;2022-08-03T12:57:44;2.55;;;2.03;;
8247;SDS011;4164;49.844;8.830;2022-08-03T13:00:10;3.92;;;2.28;;
8247;SDS011;4164;49.844;8.830;2022-08-03T13:02:37;4.15;;;2.22;;
8247;SDS011;4164;49.844;8.830;2022-08-03T13:05:08;2.40;;;1.95;;
8247;SDS011;4164;49.844;8.830;2022-08-03T13:07:44;2.35;;;2.15;;
8247;SDS011;4164;49.844;8.830;2022-08-03T13:10:11;2.90;;;1.90;;
8247;SDS011;4164;49.844;8.830;2022-08-03T13:12:50;1.90;;;1.80;;
8247;SDS011;4164;49.844;8.830;2022-08-03T13:15:17;2.28;;;1.88;;
8247;SDS011;4164;49.844;8.830;2022-08-03T13:17:42;2.28;;;1.98;;
8247;SDS011;4164;49.844;8.830;2022-08-03T13:20:08;3.30;;;2.00;;
8247;SDS011;4164;49.844;8.830;2022-08-03T13:22:34;2.67;;;2.10;;
8247;SDS011;4164;49.844;8.830;2022-08-03T13:25:00;2.95;;;1.88;;
8247;SDS011;4164;49.844;8.830;2022-08-03T13:27:27;1.85;;;1.67;;
8247;SDS011;4164;49.844;8.830;2022-08-03T13:29:53;1.95;;;1.85;;
8247;SDS011;4164;49.844;8.830;2022-08-03T13:32:20;3.85;;;2.60;;
8247;SDS011;4164;49.844;8.830;2022-08-03T13:34:46;3.55;;;2.08;;
8247;SDS011;4164;49.844;8.830;2022-08-03T13:37:12;2.03;;;1.92;;
8247;SDS011;4164;49.844;8.830;2022-08-03T13:39:38;3.10;;;1.83;;
8247;SDS011;4164;49.844;8.830;2022-08-03T13:42:04;1.88;;;1.77;;
8247;SDS011;4164;49.844;8.830;2022-08-03T13:44:31;2.10;;;1.90;;
8247;SDS011;4164;49.844;8.830;2022-08-03T13:46:56;2.42;;;2.20;;
8247;SDS011;4164;49.844;8.830;2022-08-03T13:49:24;2.17;;;1.85;;
8247;SDS011;4164;49.844;8.830;2022-08-03T13:51:53;3.92;;;2.03;;
8247;SDS011;4164;49.844;8.830;2022-08-03T13:54:19;7.25;;;2.25;;
8247;SDS011;4164;49.844;8.830;2022-08-03T13:56:45;2.22;;;2.08;;
8247;SDS011;4164;49.844;8.830;2022-08-03T13:59:23;4.47;;;2.00;;
8247;SDS011;4164;49.844;8.830;2022-08-03T14:01:49;1.90;;;1.77;;
8247;SDS011;4164;49.844;8.830;2022-08-03T14:04:16;3.92;;;2.20;;
8247;SDS011;4164;49.844;8.830;2022-08-03T14:06:42;2.22;;;1.90;;
8247;SDS011;4164;49.844;8.830;2022-08-03T14:09:09;2.30;;;2.10;;
8247;SDS011;4164;49.844;8.830;2022-08-03T14:11:38;3.38;;;2.00;;
8247;SDS011;4164;49.844;8.830;2022-08-03T14:14:08;4.22;;;2.08;;
8247;SDS011;4164;49.844;8.830;2022-08-03T14:16:34;2.30;;;2.10;;
8247;SDS011;4164;49.844;8.830;2022-08-03T14:19:00;2.53;;;2.30;;
8247;SDS011;4164;49.844;8.830;2022-08-03T14:21:26;2.30;;;2.10;;
8247;SDS011;4164;49.844;8.830;2022-08-03T14:23:51;4.30;;;2.13;;
8247;SDS011;4164;49.844;8.830;2022-08-03T14:26:17;2.30;;;2.10;;
8247;SDS011;4164;49.844;8.830;2022-08-03T14:28:44;2.72;;;2.15;;
8247;SDS011;4164;49.844;8.830;2022-08-03T14:31:10;2.25;;;2.00;;
8247;SDS011;4164;49.844;8.830;2022-08-03T14:33:35;2.42;;;2.22;;
8247;SDS011;4164;49.844;8.830;2022-08-03T14:36:01;3.15;;;2.00;;
8247;SDS011;4164;49.844;8.830;2022-08-03T14:38:27;2.55;;;2.30;;
8247;SDS011;4164;49.844;8.830;2022-08-03T14:40:53;2.90;;;2.00;;
8247;SDS011;4164;49.844;8.830;2022-08-03T14:43:19;2.83;;;2.20;;
8247;SDS011;4164;49.844;8.830;2022-08-03T14:45:45;5.53;;;2.17;;
8247;SDS011;4164;49.844;8.830;2022-08-03T14:48:11;4.10;;;2.10;;
8247;SDS011;4164;49.844;8.830;2022-08-03T14:50:37;2.67;;;2.20;;
8247;SDS011;4164;49.844;8.830;2022-08-03T14:53:03;2.75;;;1.90;;
8247;SDS011;4164;49.844;8.830;2022-08-03T14:55:32;3.03;;;2.35;;
8247;SDS011;4164;49.844;8.830;2022-08-03T14:57:58;2.33;;;2.10;;
8247;SDS011;4164;49.844;8.830;2022-08-03T15:00:26;5.57;;;2.33;;
8247;SDS011;4164;49.844;8.830;2022-08-03T15:02:52;3.13;;;2.10;;
8247;SDS011;4164;49.844;8.830;2022-08-03T15:05:17;3.50;;;2.70;;
8247;SDS011;4164;49.844;8.830;2022-08-03T15:07:43;2.70;;;2.10;;
8247;SDS011;4164;49.844;8.830;2022-08-03T15:10:08;3.53;;;2.40;;
8247;SDS011;4164;49.844;8.830;2022-08-03T15:12:34;3.73;;;2.30;;
8247;SDS011;4164;49.844;8.830;2022-08-03T15:14:59;2.43;;;2.20;;
8247;SDS011;4164;49.844;8.830;2022-08-03T15:17:25;3.07;;;2.40;;
8247;SDS011;4164;49.844;8.830;2022-08-03T15:19:50;6.57;;;2.33;;
8247;SDS011;4164;49.844;8.830;2022-08-03T15:22:16;2.60;;;2.40;;
8247;SDS011;4164;49.844;8.830;2022-08-03T15:24:43;2.47;;;2.27;;
8247;SDS011;4164;49.844;8.830;2022-08-03T15:27:08;4.13;;;2.53;;
8247;SDS011;4164;49.844;8.830;2022-08-03T15:29:34;2.77;;;2.50;;
8247;SDS011;4164;49.844;8.830;2022-08-03T15:31:59;5.17;;;2.13;;
8247;SDS011;4164;49.844;8.830;2022-08-03T15:34:25;2.77;;;2.40;;
8247;SDS011;4164;49.844;8.830;2022-08-03T15:36:50;3.43;;;2.30;;
8247;SDS011;4164;49.844;8.830;2022-08-03T15:39:16;2.60;;;2.40;;
8247;SDS011;4164;49.844;8.830;2022-08-03T15:41:41;2.67;;;2.43;;
8247;SDS011;4164;49.844;8.830;2022-08-03T15:44:07;3.57;;;2.53;;
8247;SDS011;4164;49.844;8.830;2022-08-03T15:46:33;2.50;;;2.27;;
8247;SDS011;4164;49.844;8.830;2022-08-03T15:48:58;3.80;;;2.10;;
8247;SDS011;4164;49.844;8.830;2022-08-03T15:51:24;3.93;;;2.40;;
8247;SDS011;4164;49.844;8.830;2022-08-03T15:53:49;2.63;;;2.33;;
8247;SDS011;4164;49.844;8.830;2022-08-03T15:56:15;3.77;;;2.30;;
8247;SDS011;4164;49.844;8.830;2022-08-03T15:58:40;4.30;;;2.33;;